createdAt,value
2022-12-11T00:01:24.901Z,11.32
2022-12-11T00:03:51.060Z,11.98
2022-12-11T00:06:17.219Z,10.85
2022-12-11T00:08:43.336Z,12.65
2022-12-11T00:11:09.530Z,13.32
2022-12-11T00:13:35.697Z,10.60
2022-12-11T00:16:01.907Z,11.50
2022-12-11T00:18:28.097Z,13.07
2022-12-11T00:20:54.330Z,11.45
2022-12-11T00:23:20.545Z,12.30
2022-12-11T00:25:46.700Z,12.07
2022-12-11T00:28:12.858Z,11.38
2022-12-11T00:30:40.437Z,11.90
2022-12-11T00:33:06.632Z,12.25
2022-12-11T00:35:32.748Z,13.32
2022-12-11T00:37:58.870Z,13.05
2022-12-11T00:40:25.070Z,13.23
2022-12-11T00:42:51.205Z,12.45
2022-12-11T00:45:17.427Z,13.32
2022-12-11T00:47:43.610Z,14.50
2022-12-11T00:50:09.759Z,13.60
2022-12-11T00:52:35.946Z,14.57
2022-12-11T00:55:02.107Z,14.55
2022-12-11T00:57:28.261Z,14.35
2022-12-11T00:59:54.442Z,14.60
2022-12-11T01:02:20.587Z,14.63
2022-12-11T01:04:46.738Z,13.65
2022-12-11T01:07:12.889Z,13.60
2022-12-11T01:09:39.082Z,15.52
2022-12-11T01:12:05.283Z,13.88
2022-12-11T01:14:31.435Z,15.50
2022-12-11T01:16:57.599Z,13.50
2022-12-11T01:19:23.792Z,15.15
2022-12-11T01:21:49.911Z,14.48
2022-12-11T01:24:16.083Z,14.27
2022-12-11T01:26:42.205Z,14.63
2022-12-11T01:29:08.363Z,14.82
2022-12-11T01:31:34.552Z,14.52
2022-12-11T01:34:00.726Z,14.02
2022-12-11T01:36:26.919Z,13.35
2022-12-11T01:38:53.061Z,14.65
2022-12-11T01:41:19.219Z,12.40
2022-12-11T01:43:45.389Z,16.05
2022-12-11T01:46:11.534Z,12.90
2022-12-11T01:48:42.054Z,13.43
2022-12-11T01:51:08.540Z,15.57
2022-12-11T01:53:34.728Z,14.50
2022-12-11T01:56:00.885Z,14.25
2022-12-11T01:58:27.016Z,14.85
2022-12-11T02:00:53.257Z,14.63
2022-12-11T02:03:19.502Z,14.82
2022-12-11T02:05:45.694Z,16.63
2022-12-11T02:08:11.893Z,15.30
2022-12-11T02:10:38.062Z,13.75
2022-12-11T02:13:04.244Z,16.15
2022-12-11T02:15:30.414Z,15.35
2022-12-11T02:17:56.637Z,4.78
2022-12-11T02:20:22.776Z,15.10
2022-12-11T02:22:48.920Z,14.90
2022-12-11T02:25:15.067Z,14.60
2022-12-11T02:27:41.249Z,15.43
2022-12-11T02:30:07.425Z,14.07
2022-12-11T02:32:33.561Z,15.20
2022-12-11T02:34:59.724Z,15.85
2022-12-11T02:37:25.858Z,16.75
2022-12-11T02:39:52.032Z,15.40
2022-12-11T02:42:18.186Z,16.67
2022-12-11T02:44:44.288Z,14.15
2022-12-11T02:47:10.449Z,15.13
2022-12-11T02:49:36.618Z,15.13
2022-12-11T02:52:02.749Z,12.57
2022-12-11T02:54:28.908Z,15.15
2022-12-11T02:56:55.134Z,15.52
2022-12-11T02:59:21.294Z,13.63
2022-12-11T03:01:47.522Z,14.38
2022-12-11T03:04:13.732Z,9.43
2022-12-11T03:06:39.877Z,14.18
2022-12-11T03:09:05.983Z,9.23
2022-12-11T03:11:32.100Z,8.63
2022-12-11T03:13:58.293Z,13.32
2022-12-11T03:16:24.498Z,15.10
2022-12-11T03:18:50.676Z,14.73
2022-12-11T03:21:16.832Z,14.13
2022-12-11T03:23:42.970Z,15.60
2022-12-11T03:26:09.074Z,15.82
2022-12-11T03:28:35.240Z,15.60
2022-12-11T03:31:01.436Z,14.63
2022-12-11T03:33:27.632Z,16.20
2022-12-11T03:35:53.799Z,15.57
2022-12-11T03:38:19.995Z,15.23
2022-12-11T03:40:46.185Z,14.98
2022-12-11T03:43:12.331Z,15.20
2022-12-11T03:45:38.486Z,17.45
2022-12-11T03:48:04.672Z,16.60
2022-12-11T03:50:30.791Z,14.48
2022-12-11T03:52:56.948Z,16.35
2022-12-11T03:55:23.100Z,15.40
2022-12-11T03:57:49.213Z,16.48
2022-12-11T04:00:15.353Z,15.98
2022-12-11T04:02:41.496Z,16.30
2022-12-11T04:05:07.923Z,16.05
2022-12-11T04:07:34.308Z,17.45
2022-12-11T04:10:00.422Z,17.80
2022-12-11T04:12:26.548Z,17.25
2022-12-11T04:14:52.735Z,15.88
2022-12-11T04:17:18.846Z,16.23
2022-12-11T04:19:47.371Z,15.98
2022-12-11T04:22:13.503Z,17.98
2022-12-11T04:24:39.661Z,14.32
2022-12-11T04:27:05.820Z,16.60
2022-12-11T04:29:31.963Z,15.75
2022-12-11T04:31:58.140Z,15.85
2022-12-11T04:34:24.290Z,17.55
2022-12-11T04:36:50.486Z,16.38
2022-12-11T04:39:16.659Z,15.25
2022-12-11T04:41:42.874Z,18.38
2022-12-11T04:44:09.016Z,15.70
2022-12-11T04:46:35.201Z,15.60
2022-12-11T04:49:01.409Z,16.65
2022-12-11T04:51:27.585Z,15.23
2022-12-11T04:53:53.758Z,16.13
2022-12-11T04:56:19.919Z,16.25
2022-12-11T04:58:46.067Z,15.95
2022-12-11T05:01:12.242Z,16.02
2022-12-11T05:03:38.435Z,16.10
2022-12-11T05:06:04.617Z,14.85
2022-12-11T05:08:30.727Z,15.60
2022-12-11T05:10:56.846Z,12.93
2022-12-11T05:13:23.115Z,12.02
2022-12-11T05:15:49.244Z,12.75
2022-12-11T05:18:15.467Z,16.33
2022-12-11T05:20:41.619Z,14.43
2022-12-11T05:23:07.765Z,15.25
2022-12-11T05:25:33.978Z,16.00
2022-12-11T05:28:00.159Z,15.63
2022-12-11T05:30:26.336Z,15.57
2022-12-11T05:32:52.485Z,13.15
2022-12-11T05:35:18.642Z,15.23
2022-12-11T05:37:44.815Z,17.52
2022-12-11T05:40:11.001Z,16.92
2022-12-11T05:42:37.129Z,16.75
2022-12-11T05:45:03.327Z,15.32
2022-12-11T05:47:29.542Z,16.38
2022-12-11T05:49:55.739Z,15.80
2022-12-11T05:52:21.904Z,14.63
2022-12-11T05:54:48.043Z,14.70
2022-12-11T05:57:14.212Z,14.07
2022-12-11T05:59:40.365Z,15.15
2022-12-11T06:02:06.639Z,15.45
2022-12-11T06:04:32.830Z,16.15
2022-12-11T06:06:58.999Z,15.20
2022-12-11T06:09:25.737Z,17.10
2022-12-11T06:11:51.909Z,16.25
2022-12-11T06:14:18.060Z,15.48
2022-12-11T06:16:44.207Z,15.80
2022-12-11T06:19:10.375Z,13.52
2022-12-11T06:21:36.556Z,15.70
2022-12-11T06:24:02.715Z,15.13
2022-12-11T06:26:28.854Z,13.98
2022-12-11T06:28:54.981Z,16.10
2022-12-11T06:31:21.217Z,16.77
2022-12-11T06:33:47.402Z,16.40
2022-12-11T06:36:13.536Z,12.60
2022-12-11T06:38:39.686Z,15.18
2022-12-11T06:41:05.860Z,14.93
2022-12-11T06:43:32.010Z,16.15
2022-12-11T06:46:03.581Z,15.80
2022-12-11T06:48:30.242Z,14.60
2022-12-11T06:50:56.435Z,14.10
2022-12-11T06:53:22.567Z,16.27
2022-12-11T06:55:48.680Z,14.55
2022-12-11T06:58:14.834Z,13.73
2022-12-11T07:00:41.021Z,13.48
2022-12-11T07:03:07.199Z,15.60
2022-12-11T07:05:33.331Z,15.52
2022-12-11T07:07:59.547Z,15.07
2022-12-11T07:10:25.759Z,14.10
2022-12-11T07:12:51.887Z,15.63
2022-12-11T07:15:18.015Z,15.18
2022-12-11T07:17:44.202Z,13.85
2022-12-11T07:20:10.321Z,15.43
2022-12-11T07:22:38.373Z,13.90
2022-12-11T07:25:08.081Z,16.13
2022-12-11T07:27:34.459Z,14.50
2022-12-11T07:30:00.624Z,16.90
2022-12-11T07:32:26.918Z,16.90
2022-12-11T07:34:53.235Z,15.18
2022-12-11T07:37:19.363Z,15.77
2022-12-11T07:39:45.568Z,16.33
2022-12-11T07:42:11.742Z,15.13
2022-12-11T07:44:37.885Z,15.57
2022-12-11T07:47:04.024Z,17.20
2022-12-11T07:49:30.181Z,16.73
2022-12-11T07:51:56.347Z,17.42
2022-12-11T07:54:22.525Z,16.17
2022-12-11T07:56:53.381Z,14.85
2022-12-11T07:59:19.915Z,18.27
2022-12-11T08:01:46.028Z,15.75
2022-12-11T08:04:12.168Z,17.50
2022-12-11T08:06:38.451Z,17.50
2022-12-11T08:09:04.597Z,18.60
2022-12-11T08:11:30.737Z,18.27
2022-12-11T08:13:56.935Z,19.15
2022-12-11T08:16:23.182Z,19.10
2022-12-11T08:18:49.383Z,18.45
2022-12-11T08:21:15.620Z,18.13
2022-12-11T08:23:41.748Z,18.10
2022-12-11T08:26:07.867Z,18.77
2022-12-11T08:28:34.041Z,17.40
2022-12-11T08:31:00.220Z,15.98
2022-12-11T08:33:26.444Z,18.67
2022-12-11T08:35:52.563Z,17.50
2022-12-11T08:38:25.018Z,18.00
2022-12-11T08:40:51.693Z,14.80
2022-12-11T08:43:17.819Z,12.52
2022-12-11T08:45:44.003Z,9.93
2022-12-11T08:48:10.254Z,15.18
2022-12-11T08:50:36.473Z,16.73
2022-12-11T08:53:02.646Z,15.80
2022-12-11T08:55:28.826Z,16.60
2022-12-11T08:57:55.014Z,16.73
2022-12-11T09:00:21.141Z,16.73
2022-12-11T09:02:47.496Z,19.17
2022-12-11T09:05:13.835Z,15.80
2022-12-11T09:07:40.168Z,17.98
2022-12-11T09:10:06.441Z,17.40
2022-12-11T09:12:32.602Z,16.67
2022-12-11T09:14:58.774Z,14.95
2022-12-11T09:17:24.968Z,17.05
2022-12-11T09:19:51.134Z,16.52
2022-12-11T09:22:17.453Z,15.63
2022-12-11T09:24:43.652Z,15.88
2022-12-11T09:27:09.817Z,16.10
2022-12-11T09:29:36.000Z,15.60
2022-12-11T09:32:02.124Z,17.10
2022-12-11T09:34:29.609Z,16.88
2022-12-11T09:36:55.915Z,17.13
2022-12-11T09:39:22.043Z,16.13
2022-12-11T09:41:48.220Z,17.48
2022-12-11T09:44:14.413Z,16.20
2022-12-11T09:46:40.632Z,16.52
2022-12-11T09:49:06.877Z,16.08
2022-12-11T09:51:33.041Z,15.35
2022-12-11T09:53:59.228Z,15.43
2022-12-11T09:56:25.397Z,16.60
2022-12-11T09:58:51.512Z,16.55
2022-12-11T10:01:17.771Z,17.25
2022-12-11T10:03:43.962Z,16.02
2022-12-11T10:06:10.109Z,18.73
2022-12-11T10:08:36.312Z,16.83
2022-12-11T10:11:02.472Z,18.23
2022-12-11T10:13:28.693Z,17.23
2022-12-11T10:15:54.881Z,16.90
2022-12-11T10:18:21.022Z,15.98
2022-12-11T10:20:48.374Z,15.85
2022-12-11T10:23:14.554Z,17.10
2022-12-11T10:25:40.796Z,17.33
2022-12-11T10:28:06.995Z,15.63
2022-12-11T10:30:34.701Z,15.68
2022-12-11T10:33:01.142Z,16.85
2022-12-11T10:35:27.270Z,17.38
2022-12-11T10:37:53.465Z,18.90
2022-12-11T10:40:19.649Z,17.17
2022-12-11T10:42:45.820Z,16.83
2022-12-11T10:45:12.164Z,17.30
2022-12-11T10:53:05.312Z,14.85
2022-12-11T10:55:33.872Z,17.35
2022-12-11T10:58:03.200Z,15.63
2022-12-11T11:00:35.257Z,15.80
2022-12-11T11:03:05.859Z,16.35
2022-12-11T11:05:32.146Z,15.70
2022-12-11T11:08:01.084Z,17.48
2022-12-11T11:13:15.821Z,14.82
2022-12-11T11:15:42.019Z,14.18
2022-12-11T11:18:08.233Z,13.23
2022-12-11T11:20:34.406Z,14.98
2022-12-11T11:23:00.580Z,15.63
2022-12-11T11:25:26.722Z,15.45
2022-12-11T11:27:52.842Z,12.90
2022-12-11T11:30:19.058Z,16.45
2022-12-11T11:32:45.206Z,15.93
2022-12-11T11:35:11.805Z,16.10
2022-12-11T11:37:38.295Z,14.90
2022-12-11T11:40:04.498Z,18.08
2022-12-11T11:42:30.647Z,16.17
2022-12-11T11:44:56.815Z,16.42
2022-12-11T11:47:22.955Z,16.38
2022-12-11T11:49:49.085Z,15.45
2022-12-11T11:52:15.214Z,15.05
2022-12-11T11:54:41.393Z,16.40
2022-12-11T11:57:07.505Z,16.05
2022-12-11T11:59:33.663Z,15.38
2022-12-11T12:01:59.865Z,15.55
2022-12-11T12:04:26.037Z,11.90
2022-12-11T12:06:52.184Z,17.33
2022-12-11T12:09:18.333Z,18.17
2022-12-11T12:11:44.539Z,15.93
2022-12-11T12:14:35.813Z,17.25
2022-12-11T12:16:56.844Z,16.67
2022-12-11T12:19:23.067Z,14.25
2022-12-11T12:21:49.198Z,14.95
2022-12-11T12:24:15.334Z,14.88
2022-12-11T12:26:41.495Z,15.50
2022-12-11T12:29:07.623Z,14.00
2022-12-11T12:31:33.799Z,13.65
2022-12-11T12:33:59.995Z,15.57
2022-12-11T12:36:26.218Z,15.38
2022-12-11T12:38:52.364Z,14.68
2022-12-11T12:41:18.479Z,14.98
2022-12-11T12:43:44.753Z,15.57
2022-12-11T12:46:11.069Z,14.82
2022-12-11T12:48:37.322Z,14.52
2022-12-11T12:51:03.559Z,18.95
2022-12-11T12:53:29.760Z,15.52
2022-12-11T12:55:55.904Z,14.07
2022-12-11T12:58:22.069Z,14.77
2022-12-11T13:00:48.277Z,14.73
2022-12-11T13:03:14.524Z,17.90
2022-12-11T13:05:41.811Z,15.13
2022-12-11T13:08:07.984Z,14.10
2022-12-11T13:10:34.198Z,15.27
2022-12-11T13:13:00.405Z,13.98
2022-12-11T13:15:26.573Z,15.70
2022-12-11T13:17:52.743Z,16.52
2022-12-11T13:20:18.987Z,15.05
2022-12-11T13:22:45.158Z,17.35
2022-12-11T13:25:11.547Z,14.70
2022-12-11T13:27:38.028Z,15.50
2022-12-11T13:30:06.683Z,16.40
2022-12-11T13:32:32.810Z,14.93
2022-12-11T13:34:58.957Z,15.30
2022-12-11T13:37:25.077Z,17.08
2022-12-11T13:39:51.187Z,15.02
2022-12-11T13:42:17.605Z,15.27
2022-12-11T13:44:46.569Z,16.52
2022-12-11T13:47:12.770Z,15.68
2022-12-11T13:49:38.885Z,16.20
2022-12-11T13:52:05.061Z,16.27
2022-12-11T13:54:31.272Z,16.98
2022-12-11T13:57:00.240Z,16.35
2022-12-11T13:59:26.507Z,15.63
2022-12-11T14:01:52.694Z,15.65
2022-12-11T14:04:18.840Z,16.48
2022-12-11T14:06:44.954Z,16.20
2022-12-11T14:09:11.102Z,15.40
2022-12-11T14:11:37.231Z,14.35
2022-12-11T14:14:03.366Z,17.25
2022-12-11T14:16:29.548Z,16.38
2022-12-11T14:18:55.750Z,16.65
2022-12-11T14:21:21.893Z,16.00
2022-12-11T14:23:48.012Z,17.60
2022-12-11T14:26:17.589Z,16.20
2022-12-11T14:28:51.218Z,16.75
2022-12-11T14:31:17.988Z,15.68
2022-12-11T14:33:47.834Z,16.63
2022-12-11T14:36:13.939Z,16.95
2022-12-11T14:38:40.085Z,20.48
2022-12-11T14:41:06.209Z,18.90
2022-12-11T14:43:32.386Z,18.55
2022-12-11T14:45:58.620Z,20.80
2022-12-11T14:48:24.788Z,17.60
2022-12-11T14:50:50.941Z,17.13
2022-12-11T14:53:17.099Z,15.18
2022-12-11T14:55:43.244Z,16.20
2022-12-11T14:58:09.428Z,16.42
2022-12-11T15:00:35.552Z,16.30
2022-12-11T15:03:01.771Z,14.48
2022-12-11T15:05:27.951Z,16.48
2022-12-11T15:07:54.191Z,13.95
2022-12-11T15:10:20.578Z,16.42
2022-12-11T15:12:46.699Z,16.42
2022-12-11T15:15:12.915Z,16.85
2022-12-11T15:17:39.075Z,17.27
2022-12-11T15:20:05.245Z,17.13
2022-12-11T15:22:34.778Z,15.93
2022-12-11T15:25:00.893Z,16.70
2022-12-11T15:27:27.060Z,14.93
2022-12-11T15:29:53.256Z,16.08
2022-12-11T15:32:19.418Z,18.02
2022-12-11T15:34:45.577Z,15.95
2022-12-11T15:37:11.865Z,16.95
2022-12-11T15:39:38.049Z,15.32
2022-12-11T15:42:04.202Z,16.20
2022-12-11T15:44:30.374Z,14.90
2022-12-11T15:46:56.542Z,16.55
2022-12-11T15:49:22.713Z,16.63
2022-12-11T15:51:48.820Z,15.35
2022-12-11T15:54:14.979Z,17.13
2022-12-11T15:56:41.112Z,17.42
2022-12-11T15:59:07.258Z,15.95
2022-12-11T16:01:33.455Z,15.65
2022-12-11T16:04:04.675Z,16.38
2022-12-11T16:06:31.478Z,17.63
2022-12-11T16:08:57.644Z,18.45
2022-12-11T16:11:23.840Z,17.08
2022-12-11T16:13:50.013Z,17.77
2022-12-11T16:16:16.255Z,18.17
2022-12-11T16:18:42.424Z,18.70
2022-12-11T16:21:08.540Z,19.95
2022-12-11T16:23:34.719Z,18.65
2022-12-11T16:26:00.842Z,18.00
2022-12-11T16:28:27.010Z,17.90
2022-12-11T16:30:53.217Z,17.60
2022-12-11T16:33:19.379Z,17.05
2022-12-11T16:35:45.590Z,16.33
2022-12-11T16:38:11.778Z,17.08
2022-12-11T16:40:37.971Z,17.00
2022-12-11T16:43:04.150Z,17.30
2022-12-11T16:45:30.301Z,17.38
2022-12-11T16:47:56.645Z,22.60
2022-12-11T16:50:22.881Z,20.50
2022-12-11T16:52:49.150Z,20.00
2022-12-11T16:55:15.475Z,19.13
2022-12-11T16:57:41.702Z,16.23
2022-12-11T17:00:07.848Z,17.67
2022-12-11T17:02:34.081Z,17.05
2022-12-11T17:05:00.245Z,18.70
2022-12-11T17:07:26.428Z,19.35
2022-12-11T17:09:52.548Z,14.05
2022-12-11T17:12:18.787Z,13.63
2022-12-11T17:14:44.934Z,15.82
2022-12-11T17:17:11.063Z,18.40
2022-12-11T17:19:37.204Z,17.30
2022-12-11T17:22:03.369Z,18.88
2022-12-11T17:24:29.586Z,25.65
2022-12-11T17:26:55.725Z,26.48
2022-12-11T17:29:21.878Z,32.00
2022-12-11T17:31:48.057Z,28.67
2022-12-11T17:34:14.222Z,22.98
2022-12-11T17:36:40.405Z,23.38
2022-12-11T17:39:06.561Z,19.60
2022-12-11T17:41:32.716Z,21.83
2022-12-11T17:43:58.866Z,25.55
2022-12-11T17:46:25.049Z,26.95
2022-12-11T17:48:51.248Z,23.27
2022-12-11T17:51:17.405Z,22.77
2022-12-11T17:53:43.600Z,24.15
2022-12-11T17:56:09.704Z,22.13
2022-12-11T17:58:35.843Z,21.92
2022-12-11T18:01:01.979Z,20.42
2022-12-11T18:03:28.494Z,20.23
2022-12-11T18:05:54.736Z,20.33
2022-12-11T18:08:20.891Z,22.13
2022-12-11T18:10:47.040Z,18.83
2022-12-11T18:13:13.193Z,20.70
2022-12-11T18:15:39.436Z,21.67
2022-12-11T18:18:05.595Z,21.40
2022-12-11T18:20:31.730Z,21.13
2022-12-11T18:22:57.847Z,20.60
2022-12-11T18:25:23.997Z,20.48
2022-12-11T18:27:50.370Z,20.25
2022-12-11T18:30:16.517Z,17.55
2022-12-11T18:32:42.713Z,17.67
2022-12-11T18:35:08.936Z,15.68
2022-12-11T18:37:35.161Z,17.05
2022-12-11T18:40:01.362Z,17.70
2022-12-11T18:42:34.626Z,17.95
2022-12-11T18:45:00.771Z,16.63
2022-12-11T18:47:26.959Z,17.38
2022-12-11T18:49:53.084Z,16.92
2022-12-11T18:52:19.212Z,17.98
2022-12-11T18:54:45.370Z,19.10
2022-12-11T18:57:11.549Z,18.50
2022-12-11T18:59:37.684Z,17.10
2022-12-11T19:02:03.821Z,19.17
2022-12-11T19:04:30.021Z,18.20
2022-12-11T19:06:56.201Z,17.30
2022-12-11T19:09:22.321Z,17.98
2022-12-11T19:11:48.512Z,18.25
2022-12-11T19:14:14.657Z,17.63
2022-12-11T19:16:40.817Z,18.33
2022-12-11T19:19:06.969Z,19.17
2022-12-11T19:21:33.083Z,18.40
2022-12-11T19:23:59.264Z,18.75
2022-12-11T19:26:25.462Z,18.13
2022-12-11T19:28:51.603Z,17.33
2022-12-11T19:31:17.767Z,16.48
2022-12-11T19:33:43.984Z,18.63
2022-12-11T19:36:10.189Z,19.20
2022-12-11T19:38:36.331Z,19.88
2022-12-11T19:41:02.543Z,20.40
2022-12-11T19:43:28.721Z,19.77
2022-12-11T19:45:54.847Z,20.08
2022-12-11T19:48:21.002Z,20.95
2022-12-11T19:50:47.214Z,19.65
2022-12-11T19:53:13.359Z,18.88
2022-12-11T19:55:39.521Z,18.25
2022-12-11T19:58:05.688Z,19.40
2022-12-11T20:00:31.895Z,22.83
2022-12-11T20:02:58.104Z,17.30
2022-12-11T20:05:24.330Z,17.73
2022-12-11T20:07:50.503Z,19.10
2022-12-11T20:10:16.714Z,19.60
2022-12-11T20:12:42.887Z,17.50
2022-12-11T20:15:09.112Z,18.67
2022-12-11T20:17:35.363Z,20.73
2022-12-11T20:20:01.591Z,18.52
2022-12-11T20:22:27.794Z,18.38
2022-12-11T20:24:54.004Z,21.20
2022-12-11T20:27:20.186Z,21.95
2022-12-11T20:29:46.328Z,19.90
2022-12-11T20:32:12.684Z,17.77
2022-12-11T20:34:38.916Z,17.27
2022-12-11T20:37:05.027Z,15.18
2022-12-11T20:39:31.235Z,16.02
2022-12-11T20:41:57.374Z,14.57
2022-12-11T20:44:23.541Z,16.20
2022-12-11T20:46:49.692Z,17.63
2022-12-11T20:49:15.821Z,15.98
2022-12-11T20:51:41.946Z,15.82
2022-12-11T20:54:08.339Z,15.68
2022-12-11T20:56:34.472Z,15.57
2022-12-11T20:59:00.675Z,16.02
2022-12-11T21:01:26.866Z,16.27
2022-12-11T21:03:53.008Z,16.25
2022-12-11T21:06:19.195Z,16.40
2022-12-11T21:08:45.354Z,17.20
2022-12-11T21:11:11.526Z,15.65
2022-12-11T21:13:37.692Z,16.92
2022-12-11T21:16:03.897Z,16.13
2022-12-11T21:18:30.083Z,16.73
2022-12-11T21:20:56.219Z,17.42
2022-12-11T21:23:22.380Z,16.13
2022-12-11T21:25:48.552Z,15.35
2022-12-11T21:28:14.664Z,17.52
2022-12-11T21:30:40.837Z,16.45
2022-12-11T21:33:07.044Z,17.90
2022-12-11T21:35:33.222Z,16.48
2022-12-11T21:37:59.417Z,16.95
2022-12-11T21:40:25.560Z,17.00
2022-12-11T21:42:51.756Z,18.27
2022-12-11T21:48:05.034Z,16.70
2022-12-11T21:50:31.201Z,16.70
2022-12-11T21:52:57.393Z,17.33
2022-12-11T21:55:23.583Z,18.42
2022-12-11T21:57:49.746Z,14.48
2022-12-11T22:00:15.926Z,17.67
2022-12-11T22:02:42.245Z,17.67
2022-12-11T22:05:08.547Z,16.95
2022-12-11T22:07:34.720Z,18.08
2022-12-11T22:10:00.919Z,18.30
2022-12-11T22:12:27.129Z,16.55
2022-12-11T22:14:53.294Z,17.70
2022-12-11T22:17:19.433Z,16.70
2022-12-11T22:19:45.602Z,17.50
2022-12-11T22:22:11.889Z,17.70
2022-12-11T22:24:38.076Z,17.05
2022-12-11T22:27:04.252Z,17.10
2022-12-11T22:29:30.406Z,17.60
2022-12-11T22:31:56.573Z,18.23
2022-12-11T22:34:22.773Z,16.73
2022-12-11T22:36:49.193Z,18.23
2022-12-11T22:39:15.352Z,18.77
2022-12-11T22:41:41.535Z,17.27
2022-12-11T22:44:07.722Z,18.13
2022-12-11T22:46:33.885Z,18.42
2022-12-11T22:49:00.046Z,16.90
2022-12-11T22:51:26.248Z,18.45
2022-12-11T22:53:52.396Z,17.63
2022-12-11T22:56:18.567Z,19.45
2022-12-11T22:58:44.687Z,18.05
2022-12-11T23:01:10.834Z,19.45
2022-12-11T23:03:37.041Z,18.60
2022-12-11T23:06:05.417Z,16.15
2022-12-11T23:08:31.694Z,17.38
2022-12-11T23:10:57.932Z,16.30
2022-12-11T23:13:24.063Z,18.10
2022-12-11T23:15:50.193Z,19.75
2022-12-11T23:18:16.366Z,18.08
2022-12-11T23:20:42.511Z,18.17
2022-12-11T23:23:08.670Z,17.48
2022-12-11T23:25:34.845Z,17.27
2022-12-11T23:28:00.973Z,17.85
2022-12-11T23:30:27.140Z,17.95
2022-12-11T23:32:53.301Z,17.77
2022-12-11T23:35:19.414Z,18.60
2022-12-11T23:37:45.529Z,17.98
2022-12-11T23:40:11.699Z,19.02
2022-12-11T23:42:37.878Z,17.88
2022-12-11T23:45:04.059Z,17.52
2022-12-11T23:47:30.255Z,16.60
2022-12-11T23:49:56.374Z,17.60
2022-12-11T23:52:22.546Z,17.30
2022-12-11T23:54:48.744Z,17.63
2022-12-11T23:57:14.911Z,17.17
2022-12-11T23:59:41.081Z,17.52
